Time;durP1;ratioP1;P1;durP2;ratioP2;P2;SDS_P1;SDS_P2;PMS_P1;PMS_P2;Temp;Humidity;BMP_temperature;BMP_pressure;BME280_temperature;BME280_humidity;BME280_pressure;Samples;Min_cycle;Max_cycle;Signal;HPM_P1;HPM_P2
2023/02/27 00:00:13;;;;;;;6.82;1.52;;;;;;;-0.58;100.00;102756.13;5130658;27;20122;-59
2023/02/27 00:02:41;;;;;;;4.65;1.98;;;;;;;-0.52;100.00;102758.78;5129417;27;20120;-60
2023/02/27 00:05:10;;;;;;;5.20;1.60;;;;;;;-0.58;100.00;102763.03;5132007;27;20043;-59
2023/02/27 00:07:38;;;;;;;4.03;1.40;;;;;;;-0.59;100.00;102764.72;5129512;27;20551;-59
2023/02/27 00:10:10;;;;;;;6.00;1.30;;;;;;;-0.55;100.00;102758.72;5130689;27;20051;-60
2023/02/27 00:12:38;;;;;;;6.43;1.75;;;;;;;-0.61;100.00;102769.00;5130529;27;20043;-59
2023/02/27 00:15:08;;;;;;;2.83;1.15;;;;;;;-0.58;100.00;102768.19;5131002;27;20426;-59
2023/02/27 00:17:36;;;;;;;4.90;1.45;;;;;;;-0.60;100.00;102775.03;5133817;27;20047;-59
2023/02/27 00:20:06;;;;;;;6.05;1.70;;;;;;;-0.61;100.00;102774.19;5133848;27;20067;-59
2023/02/27 00:22:34;;;;;;;6.60;2.00;;;;;;;-0.64;100.00;102770.69;5133604;27;20096;-60
2023/02/27 00:25:02;;;;;;;4.85;1.42;;;;;;;-0.64;100.00;102763.81;5133380;28;20043;-59
2023/02/27 00:27:32;;;;;;;2.50;1.15;;;;;;;-0.67;100.00;102768.94;5130385;28;20051;-60
2023/02/27 00:30:00;;;;;;;3.58;1.30;;;;;;;-0.64;100.00;102766.41;5129794;27;20053;-60
2023/02/27 00:32:29;;;;;;;6.28;1.50;;;;;;;-0.66;100.00;102764.66;5129479;27;21044;-59
2023/02/27 00:34:57;;;;;;;4.00;1.38;;;;;;;-0.68;100.00;102764.63;5129254;27;20046;-59
2023/02/27 00:37:25;;;;;;;4.68;1.45;;;;;;;-0.69;100.00;102758.56;5129613;27;20043;-59
2023/02/27 00:39:53;;;;;;;6.65;1.77;;;;;;;-0.63;100.00;102762.09;5130510;28;20066;-58
2023/02/27 00:42:21;;;;;;;5.35;1.40;;;;;;;-0.69;100.00;102761.16;5130356;27;20047;-59
2023/02/27 00:44:51;;;;;;;3.92;1.27;;;;;;;-0.67;100.00;102761.16;5129395;28;20046;-60
2023/02/27 00:47:19;;;;;;;4.25;1.25;;;;;;;-0.71;100.00;102759.41;5129794;27;20039;-59
2023/02/27 00:49:47;;;;;;;6.57;1.50;;;;;;;-0.73;100.00;102758.53;5128736;27;20431;-59
2023/02/27 00:52:15;;;;;;;6.03;1.52;;;;;;;-0.73;100.00;102758.53;5129504;28;20558;-59
2023/02/27 00:54:43;;;;;;;5.20;1.80;;;;;;;-0.66;100.00;102757.75;5129943;28;20410;-59
2023/02/27 00:57:12;;;;;;;10.25;2.78;;;;;;;-0.66;100.00;102756.88;5134173;27;20505;-59
2023/02/27 00:59:40;;;;;;;3.13;1.33;;;;;;;-0.72;100.00;102752.50;5134507;27;20059;-59
2023/02/27 01:02:12;;;;;;;5.85;1.38;;;;;;;-0.77;100.00;102754.16;5133909;27;20862;-60
2023/02/27 01:04:40;;;;;;;4.18;1.40;;;;;;;-0.78;100.00;102755.00;5132388;27;20047;-59
2023/02/27 01:07:09;;;;;;;4.55;1.58;;;;;;;-0.82;100.00;102753.22;5133381;27;20578;-59
2023/02/27 01:09:37;;;;;;;4.97;1.30;;;;;;;-0.84;100.00;102758.38;5135301;27;20043;-59
2023/02/27 01:12:05;;;;;;;4.40;1.55;;;;;;;-0.87;100.00;102754.03;5135534;27;20047;-59
2023/02/27 01:14:34;;;;;;;2.42;1.27;;;;;;;-0.87;100.00;102748.88;5133465;27;20058;-59
2023/02/27 01:17:02;;;;;;;6.55;1.65;;;;;;;-0.88;100.00;102744.56;5133563;27;20047;-59
2023/02/27 01:19:31;;;;;;;5.55;1.67;;;;;;;-0.88;100.00;102754.88;5130464;27;20047;-59
2023/02/27 01:22:00;;;;;;;2.97;1.25;;;;;;;-0.88;100.00;102746.28;5133297;27;20123;-60
2023/02/27 01:24:28;;;;;;;1.73;1.02;;;;;;;-0.90;100.00;102755.72;5133081;27;20043;-60
2023/02/27 01:26:56;;;;;;;3.22;1.40;;;;;;;-0.92;100.00;102760.00;5133857;27;20051;-60
2023/02/27 01:29:24;;;;;;;4.88;1.10;;;;;;;-0.93;100.00;102758.25;5133479;27;20099;-59
2023/02/27 01:31:55;;;;;;;4.40;1.45;;;;;;;-0.92;100.00;102753.09;5133763;27;20065;-59
2023/02/27 01:34:23;;;;;;;3.75;1.48;;;;;;;-0.94;100.00;102757.41;5134799;27;20079;-59
2023/02/27 01:36:52;;;;;;;4.40;1.30;;;;;;;-0.94;100.00;102756.50;5132590;27;20828;-59
2023/02/27 01:39:20;;;;;;;5.63;1.30;;;;;;;-0.93;100.00;102758.25;5133140;27;20461;-59
2023/02/27 01:41:48;;;;;;;5.40;1.40;;;;;;;-0.95;100.00;102758.25;5133143;27;20051;-60
2023/02/27 01:44:17;;;;;;;5.00;1.33;;;;;;;-0.97;100.00;102752.16;5133516;27;20059;-59
2023/02/27 01:46:47;;;;;;;4.38;1.30;;;;;;;-0.95;100.00;102758.25;5131807;27;20055;-59
2023/02/27 01:49:19;;;;;;;4.78;1.92;;;;;;;-0.97;100.00;102757.34;5132248;27;20047;-59
2023/02/27 01:51:51;;;;;;;4.55;1.30;;;;;;;-0.98;100.00;102760.78;5131722;27;20050;-59
2023/02/27 01:54:24;;;;;;;3.63;1.58;;;;;;;-1.01;100.00;102750.41;5135895;27;20047;-60
2023/02/27 01:56:52;;;;;;;4.00;1.10;;;;;;;-1.05;100.00;102756.38;5135268;27;20050;-59
2023/02/27 01:59:21;;;;;;;4.30;1.30;;;;;;;-1.05;100.00;102751.19;5132909;27;20047;-59
2023/02/27 02:01:51;;;;;;;4.60;1.27;;;;;;;-1.08;100.00;102744.31;5132135;27;20050;-59
2023/02/27 02:04:24;;;;;;;2.05;1.00;;;;;;;-1.09;100.00;102752.00;5131041;27;20047;-59
2023/02/27 02:06:58;;;;;;;3.83;1.30;;;;;;;-1.11;100.00;102757.16;5131808;27;20055;-59
2023/02/27 02:09:29;;;;;;;4.03;1.20;;;;;;;-1.14;100.00;102749.38;5132256;27;20435;-59
2023/02/27 02:11:59;;;;;;;5.55;1.35;;;;;;;-1.15;100.00;102750.22;5132748;27;20066;-59
2023/02/27 02:14:27;;;;;;;5.68;1.42;;;;;;;-1.18;100.00;102752.75;5134227;27;20478;-59
2023/02/27 02:17:12;;;;;;;4.78;1.38;;;;;;;-1.22;100.00;102744.09;5133197;27;20043;-59
2023/02/27 02:20:08;;;;;;;6.30;1.60;;;;;;;-1.23;100.00;102747.53;5131675;27;20074;-60
2023/02/27 02:23:05;;;;;;;4.40;1.40;;;;;;;-1.26;100.00;102747.47;5132102;27;20070;-59
2023/02/27 02:26:08;;;;;;;4.05;1.60;;;;;;;-1.27;100.00;102752.63;5132606;27;20055;-59
2023/02/27 02:29:05;;;;;;;4.35;1.10;;;;;;;-1.30;100.00;102752.59;5134438;27;20501;-59
2023/02/27 02:32:00;;;;;;;5.93;1.42;;;;;;;-1.33;100.00;102747.38;5131818;27;20047;-59
2023/02/27 02:34:52;;;;;;;5.07;1.27;;;;;;;-1.34;100.00;102745.63;5110707;27;20063;-59
2023/02/27 02:37:56;;;;;;;3.75;1.30;;;;;;;-1.36;100.00;102743.88;5131727;27;20051;-59
2023/02/27 02:40:35;;;;;;;6.88;2.00;;;;;;;-1.37;100.00;102746.44;5129232;27;20067;-59
2023/02/27 02:43:12;;;;;;;7.65;2.28;;;;;;;-1.40;100.00;102741.25;5135608;27;20043;-59
2023/02/27 02:45:48;;;;;;;4.68;1.42;;;;;;;-1.40;100.00;102749.00;5135268;27;20117;-59
2023/02/27 02:48:21;;;;;;;6.72;1.60;;;;;;;-1.43;100.00;102752.41;5133032;27;20051;-59
2023/02/27 02:50:55;;;;;;;6.95;1.65;;;;;;;-1.44;100.00;102754.97;5130299;27;20051;-59
2023/02/27 02:53:31;;;;;;;3.88;1.40;;;;;;;-1.42;100.00;102745.50;5133995;27;20098;-59
2023/02/27 02:56:10;;;;;;;5.10;1.60;;;;;;;-1.44;100.00;102749.78;5131882;27;20092;-59
2023/02/27 02:58:49;;;;;;;5.60;1.63;;;;;;;-1.44;100.00;102754.97;5131419;27;20119;-59
2023/02/27 03:01:22;;;;;;;7.50;1.58;;;;;;;-1.45;100.00;102754.06;5133724;27;20051;-59
2023/02/27 03:03:55;;;;;;;7.05;1.60;;;;;;;-1.49;100.00;102757.44;5131440;27;20581;-59
2023/02/27 03:06:29;;;;;;;4.07;1.65;;;;;;;-1.51;100.00;102756.56;5129531;27;20055;-59
2023/02/27 03:09:01;;;;;;;3.83;1.50;;;;;;;-1.53;100.00;102755.66;5129945;27;20085;-59
2023/02/27 03:11:36;;;;;;;5.25;1.60;;;;;;;-1.55;100.00;102762.53;5130912;27;20043;-59
2023/02/27 03:14:10;;;;;;;5.43;1.67;;;;;;;-1.59;100.00;102759.03;5130389;27;20538;-59
2023/02/27 03:16:42;;;;;;;4.53;1.67;;;;;;;-1.61;100.00;102757.25;5130695;27;20051;-60
2023/02/27 03:19:14;;;;;;;5.75;1.58;;;;;;;-1.61;100.00;102757.25;5130823;27;20043;-59
2023/02/27 03:21:47;;;;;;;7.25;1.73;;;;;;;-1.64;100.00;102759.78;5128603;27;20051;-59
2023/02/27 03:24:20;;;;;;;7.25;2.38;;;;;;;-1.67;100.00;102754.59;5131181;27;20043;-59
2023/02/27 03:26:53;;;;;;;7.38;1.90;;;;;;;-1.65;100.00;102768.38;5133367;27;20057;-59
2023/02/27 03:29:30;;;;;;;4.25;1.58;;;;;;;-1.62;100.00;102765.84;5131115;27;20751;-59
2023/02/27 03:32:03;;;;;;;6.80;1.63;;;;;;;-1.51;100.00;102768.59;5131125;27;20046;-60
2023/02/27 03:34:35;;;;;;;5.47;1.95;;;;;;;-1.61;100.00;102763.31;5132662;27;20050;-59
2023/02/27 03:37:09;;;;;;;10.87;2.33;;;;;;;-1.63;100.00;102758.97;5129742;27;20420;-59
2023/02/27 03:39:45;;;;;;;5.95;1.92;;;;;;;-1.66;100.00;102759.78;5129538;27;20466;-59
2023/02/27 03:42:24;;;;;;;7.07;1.73;;;;;;;-1.68;100.00;102761.44;5131293;27;20135;-59
2023/02/27 03:44:59;;;;;;;5.93;2.08;;;;;;;-1.67;100.00;102764.91;5131014;27;20051;-59
2023/02/27 03:47:28;;;;;;;5.63;1.80;;;;;;;-1.68;100.00;102766.59;5130618;27;20058;-59
2023/02/27 03:49:57;;;;;;;7.80;2.20;;;;;;;-1.70;100.00;102763.16;5129480;27;20435;-60
2023/02/27 03:52:28;;;;;;;6.72;1.85;;;;;;;-1.74;100.00;102764.78;5128991;27;20170;-59
2023/02/27 03:55:01;;;;;;;5.73;1.90;;;;;;;-1.74;100.00;102769.09;5130976;27;20051;-59
2023/02/27 03:57:32;;;;;;;4.30;1.90;;;;;;;-1.77;100.00;102771.59;5129510;27;20051;-59
2023/02/27 04:00:00;;;;;;;5.68;2.20;;;;;;;-1.78;100.00;102767.31;5131006;27;20051;-59
2023/02/27 04:02:28;;;;;;;7.03;1.88;;;;;;;-1.73;100.00;102773.44;5132377;27;20154;-59
2023/02/27 04:04:57;;;;;;;6.13;2.13;;;;;;;-1.78;100.00;102775.06;5129731;27;20118;-59
2023/02/27 04:07:34;;;;;;;6.32;2.33;;;;;;;-1.79;100.00;102775.88;5130157;27;20485;-59
2023/02/27 04:10:21;;;;;;;5.05;1.90;;;;;;;-1.79;100.00;102783.63;5130067;27;20493;-59
2023/02/27 04:13:17;;;;;;;5.50;2.40;;;;;;;-1.84;100.00;102780.09;5133571;27;20043;-59
2023/02/27 04:16:05;;;;;;;8.00;2.33;;;;;;;-1.85;100.00;102789.56;5132452;27;20051;-59
2023/02/27 04:18:52;;;;;;;7.50;2.17;;;;;;;-1.92;100.00;102786.00;5130740;27;20127;-59
2023/02/27 04:21:30;;;;;;;6.90;2.20;;;;;;;-1.93;100.00;102791.13;5130316;27;20049;-59
2023/02/27 04:24:09;;;;;;;7.00;2.08;;;;;;;-1.96;100.00;102788.50;5131292;27;20414;-59
2023/02/27 04:26:44;;;;;;;6.28;2.55;;;;;;;-1.97;100.00;102792.78;5130758;27;20095;-58
2023/02/27 04:29:18;;;;;;;7.97;2.28;;;;;;;-1.98;100.00;102800.47;5130360;27;20108;-59
2023/02/27 04:31:54;;;;;;;7.43;2.17;;;;;;;-1.98;100.00;102797.91;5133179;27;20055;-59
2023/02/27 04:34:30;;;;;;;8.07;2.20;;;;;;;-1.97;100.00;102795.34;5133940;27;20058;-59
2023/02/27 04:37:02;;;;;;;6.55;2.30;;;;;;;-1.97;100.00;102795.34;5134044;27;20099;-59
2023/02/27 04:39:32;;;;;;;;;;;;;;;-2.00;100.00;102791.84;5134698;27;20043;-59
2023/02/27 04:42:03;;;;;;;9.05;2.13;;;;;;;-2.01;100.00;102795.28;5134654;27;19919;-59
2023/02/27 04:44:36;;;;;;;6.82;2.33;;;;;;;-2.01;100.00;102798.72;5132709;27;20047;-59
2023/02/27 04:47:07;;;;;;;13.75;2.70;;;;;;;-1.96;100.00;102804.84;5134721;27;20171;-59
2023/02/27 04:49:42;;;;;;;6.78;2.15;;;;;;;-1.98;100.00;102806.50;5137616;27;20040;-59
2023/02/27 04:52:13;;;;;;;6.68;2.03;;;;;;;-2.00;100.00;102810.78;5137421;27;20401;-59
2023/02/27 04:54:47;;;;;;;9.10;2.20;;;;;;;-2.08;100.00;102810.63;5136196;27;20096;-59
2023/02/27 04:57:19;;;;;;;13.00;2.33;;;;;;;-2.10;100.00;102814.91;5132620;27;20055;-59
2023/02/27 04:59:54;;;;;;;8.90;2.70;;;;;;;-2.12;100.00;102820.84;5132492;27;20050;-59
2023/02/27 05:02:27;;;;;;;6.97;2.45;;;;;;;-2.12;100.00;102815.69;5137285;27;20107;-59
2023/02/27 05:04:57;;;;;;;;;;;;;;;-2.12;100.00;102816.56;5137818;27;20126;-59
2023/02/27 05:07:30;;;;;;;7.53;2.38;;;;;;;-2.12;100.00;102818.28;5137346;27;19924;-59
2023/02/27 05:10:02;;;;;;;6.82;2.55;;;;;;;-2.15;100.00;102824.25;5137217;27;20513;-59
2023/02/27 05:12:37;;;;;;;10.65;2.30;;;;;;;-2.12;100.00;102820.84;5134252;27;20039;-59
2023/02/27 05:15:11;;;;;;;8.77;2.65;;;;;;;-2.17;100.00;102820.75;5134009;27;20171;-59
2023/02/27 05:17:47;;;;;;;11.98;2.28;;;;;;;-2.17;100.00;102827.63;5134441;27;20049;-59
2023/02/27 05:20:17;;;;;;;7.10;2.60;;;;;;;-2.19;100.00;102830.19;5136640;27;20474;-59
2023/02/27 05:22:49;;;;;;;10.02;2.60;;;;;;;-2.21;100.00;102827.56;5136634;27;20410;-59
2023/02/27 05:25:26;;;;;;;7.90;2.20;;;;;;;-2.21;100.00;102839.56;5136228;27;20043;-59
2023/02/27 05:28:02;;;;;;;6.88;2.33;;;;;;;-2.21;100.00;102842.16;5133995;27;20482;-59
2023/02/27 05:30:38;;;;;;;7.93;2.50;;;;;;;-2.23;100.00;102839.56;5132638;27;20047;-59
2023/02/27 05:33:13;;;;;;;6.60;2.15;;;;;;;-2.26;100.00;102842.06;5133604;27;20045;-59
2023/02/27 05:35:48;;;;;;;7.10;2.58;;;;;;;-2.27;100.00;102849.78;5131996;27;20433;-59
2023/02/27 05:38:22;;;;;;;5.80;2.38;;;;;;;-2.27;100.00;102848.06;5133223;27;20050;-59
2023/02/27 05:40:55;;;;;;;5.65;2.42;;;;;;;-2.28;100.00;102845.47;5133856;27;20062;-59
2023/02/27 05:43:28;;;;;;;6.28;2.20;;;;;;;-2.28;100.00;102851.47;5132761;27;20047;-59
2023/02/27 05:46:02;;;;;;;5.72;2.22;;;;;;;-2.29;100.00;102849.75;5133112;27;20524;-59
2023/02/27 05:48:35;;;;;;;10.23;2.28;;;;;;;-2.24;100.00;102842.97;5133026;27;20047;-59
2023/02/27 05:51:07;;;;;;;8.75;2.58;;;;;;;-2.28;100.00;102848.03;5132020;27;20045;-59
2023/02/27 05:53:45;;;;;;;7.28;2.20;;;;;;;-2.30;100.00;102852.31;5133015;27;20039;-59
2023/02/27 05:56:18;;;;;;;6.03;2.15;;;;;;;-2.30;100.00;102842.84;5132207;27;20075;-59
2023/02/27 05:58:52;;;;;;;7.82;2.20;;;;;;;-2.32;100.00;102847.09;5132927;27;20159;-59
2023/02/27 06:01:22;;;;;;;6.78;2.22;;;;;;;-2.31;100.00;102847.97;5133175;27;20053;-59
2023/02/27 06:03:53;;;;;;;7.00;2.92;;;;;;;-2.33;100.00;102850.53;5134137;27;20123;-59
2023/02/27 06:06:23;;;;;;;6.75;2.20;;;;;;;-2.34;100.00;102856.50;5131279;27;20439;-59
2023/02/27 06:08:51;;;;;;;7.35;2.20;;;;;;;-2.35;100.00;102853.91;5131496;27;20058;-59
2023/02/27 06:11:19;;;;;;;7.68;2.28;;;;;;;-2.35;100.00;102852.19;5133568;27;20088;-60
2023/02/27 06:13:47;;;;;;;9.32;2.55;;;;;;;-2.35;100.00;102854.78;5134774;27;20062;-59
2023/02/27 06:16:18;;;;;;;7.13;2.47;;;;;;;-2.30;100.00;102860.91;5132563;27;20104;-59
2023/02/27 06:18:48;;;;;;;4.75;2.10;;;;;;;-2.33;100.00;102865.09;5134957;27;20513;-58
2023/02/27 06:21:16;;;;;;;9.30;2.35;;;;;;;-2.35;100.00;102865.06;5131587;27;20043;-59
2023/02/27 06:23:44;;;;;;;7.97;2.05;;;;;;;-2.32;100.00;102864.28;5131943;27;20051;-58
2023/02/27 06:26:13;;;;;;;6.95;2.30;;;;;;;-2.35;100.00;102875.38;5130862;27;20047;-58
2023/02/27 06:28:41;;;;;;;6.95;2.35;;;;;;;-2.36;100.00;102876.22;5132637;27;20574;-59
2023/02/27 06:31:09;;;;;;;7.72;2.35;;;;;;;-2.35;100.00;102877.97;5132173;27;20096;-58
2023/02/27 06:33:37;;;;;;;7.40;2.15;;;;;;;-2.36;100.00;102877.94;5131171;27;20137;-58
2023/02/27 06:36:07;;;;;;;5.80;2.17;;;;;;;-2.35;100.00;102882.25;5135480;27;20043;-58
2023/02/27 06:38:36;;;;;;;7.03;2.10;;;;;;;-2.33;100.00;102878.88;5134430;27;20115;-58
2023/02/27 06:41:04;;;;;;;7.30;2.13;;;;;;;-2.34;100.00;102892.59;5135392;27;20054;-58
2023/02/27 06:43:33;;;;;;;11.15;2.38;;;;;;;-2.27;100.00;102889.31;5132861;27;20398;-58
2023/02/27 06:46:01;;;;;;;6.60;2.05;;;;;;;-2.29;100.00;102892.69;5131432;27;20455;-58
2023/02/27 06:48:30;;;;;;;5.30;1.92;;;;;;;-2.28;100.00;102892.72;5133281;27;20561;-58
2023/02/27 06:50:58;;;;;;;5.38;2.10;;;;;;;-2.28;100.00;102894.44;5130809;27;20074;-59
2023/02/27 06:53:27;;;;;;;8.23;2.05;;;;;;;-2.31;100.00;102897.81;5131272;27;20540;-58
2023/02/27 06:55:55;;;;;;;8.23;2.47;;;;;;;-2.24;100.00;102896.25;5131776;27;20051;-58
2023/02/27 06:58:24;;;;;;;8.00;2.50;;;;;;;-2.23;100.00;102903.16;5133889;27;20058;-58
2023/02/27 07:00:52;;;;;;;10.25;2.63;;;;;;;-2.22;100.00;102898.00;5134484;27;20397;-59
2023/02/27 07:03:20;;;;;;;6.53;3.38;;;;;;;-2.19;100.00;102891.19;5134849;27;20470;-58
2023/02/27 07:05:49;;;;;;;4.78;2.20;;;;;;;-2.17;100.00;102904.97;5133431;27;20043;-58
2023/02/27 07:08:20;;;;;;;8.80;2.50;;;;;;;-2.17;100.00;102907.56;5132725;27;20043;-58
2023/02/27 07:10:49;;;;;;;5.47;2.13;;;;;;;-2.16;100.00;102907.59;5131607;27;20116;-58
2023/02/27 07:13:18;;;;;;;4.70;2.03;;;;;;;-2.14;100.00;102910.19;5131534;27;20051;-58
2023/02/27 07:15:47;;;;;;;7.50;2.60;;;;;;;-2.09;100.00;102908.59;5131341;27;20051;-58
2023/02/27 07:18:15;;;;;;;8.80;2.20;;;;;;;-2.08;100.00;102905.19;5131217;27;20068;-58
2023/02/27 07:20:43;;;;;;;5.88;2.28;;;;;;;-2.05;100.00;102910.38;5130012;27;20092;-59
2023/02/27 07:23:11;;;;;;;6.70;1.92;;;;;;;-1.96;100.00;102910.56;5129855;27;20053;-59
2023/02/27 07:25:39;;;;;;;5.30;2.22;;;;;;;-1.92;100.00;102914.09;5131309;27;20092;-59
2023/02/27 07:28:09;;;;;;;6.38;2.20;;;;;;;-1.88;100.00;102915.91;5131539;27;20201;-59
2023/02/27 07:30:37;;;;;;;6.70;2.42;;;;;;;-1.79;100.00;102917.78;5130568;27;20088;-59
2023/02/27 07:33:05;;;;;;;6.88;2.45;;;;;;;-1.66;100.00;102919.75;5131262;27;20039;-59
2023/02/27 07:35:34;;;;;;;8.23;2.58;;;;;;;-1.48;100.00;102918.38;5129691;27;20078;-59
2023/02/27 07:38:02;;;;;;;7.75;2.95;;;;;;;-1.18;100.00;102914.59;5131196;27;20047;-59
2023/02/27 07:40:30;;;;;;;9.77;3.38;;;;;;;-0.81;100.00;102916.03;5130974;27;20550;-59
2023/02/27 07:42:58;;;;;;;10.20;4.00;;;;;;;-0.45;100.00;102927.78;5131301;27;20089;-59
2023/02/27 07:45:31;;;;;;;8.23;4.03;;;;;;;-0.23;100.00;102922.88;5129814;27;20057;-59
2023/02/27 07:47:59;;;;;;;8.88;3.78;;;;;;;-0.05;100.00;102930.03;5129602;27;20594;-60
2023/02/27 07:50:29;;;;;;;10.57;3.75;;;;;;;0.41;100.00;102921.91;5129135;27;20050;-59
2023/02/27 07:52:58;;;;;;;8.20;3.65;;;;;;;0.35;100.00;102919.28;5129552;27;20480;-60
2023/02/27 07:55:26;;;;;;;10.70;2.85;;;;;;;0.37;100.00;102925.31;5133426;27;20382;-59
2023/02/27 07:57:54;;;;;;;6.82;2.70;;;;;;;0.73;100.00;102924.81;5131139;27;20070;-59
2023/02/27 08:00:22;;;;;;;4.80;2.10;;;;;;;1.05;100.00;102928.56;5129983;27;20054;-59
2023/02/27 08:02:52;;;;;;;5.25;2.10;;;;;;;1.34;100.00;102933.97;5130362;27;20378;-59
2023/02/27 08:05:20;;;;;;;7.05;2.60;;;;;;;1.89;100.00;102932.53;5132696;27;20542;-59
2023/02/27 08:07:48;;;;;;;7.50;2.08;;;;;;;2.46;100.00;102931.00;5133184;27;20567;-60
2023/02/27 08:10:17;;;;;;;7.10;1.98;;;;;;;2.38;100.00;102932.72;5130270;27;20122;-59
2023/02/27 08:12:48;;;;;;;6.90;1.67;;;;;;;2.41;100.00;102931.84;5131604;27;20114;-59
2023/02/27 08:15:17;;;;;;;7.10;2.40;;;;;;;2.50;100.00;102927.53;5133404;27;20103;-59
2023/02/27 08:17:45;;;;;;;7.05;2.00;;;;;;;2.28;100.00;102937.03;5133501;27;20122;-59
2023/02/27 08:20:15;;;;;;;4.07;1.65;;;;;;;2.49;100.00;102936.19;5132853;27;20054;-59
2023/02/27 08:22:44;;;;;;;6.65;1.95;;;;;;;2.44;100.00;102931.84;5129903;27;20047;-59
2023/02/27 08:25:12;;;;;;;5.03;1.80;;;;;;;2.57;100.00;102940.56;5130136;27;20066;-59
2023/02/27 08:27:40;;;;;;;7.70;2.60;;;;;;;2.73;100.00;102947.50;5129263;27;20051;-59
2023/02/27 08:30:11;;;;;;;8.30;2.28;;;;;;;2.74;100.00;102941.44;5133207;28;20039;-59
2023/02/27 08:32:43;;;;;;;7.35;2.83;;;;;;;3.01;100.00;102944.91;5132843;27;20506;-59
2023/02/27 08:35:11;;;;;;;6.30;2.58;;;;;;;3.30;100.00;102937.13;5129238;27;20126;-59
2023/02/27 08:37:41;;;;;;;6.68;2.45;;;;;;;3.54;100.00;102945.72;5131487;28;20042;-59
2023/02/27 08:40:10;;;;;;;7.63;2.17;;;;;;;3.65;100.00;102943.13;5131084;27;20079;-59
2023/02/27 08:42:39;;;;;;;6.43;2.22;;;;;;;3.66;100.00;102950.06;5129913;27;20188;-59
2023/02/27 08:45:08;;;;;;;7.30;2.65;;;;;;;3.69;100.00;102950.91;5129951;27;20095;-59
2023/02/27 08:47:37;;;;;;;7.57;2.33;;;;;;;4.14;100.00;102948.13;5133553;27;20047;-59
2023/02/27 08:50:11;;;;;;;7.13;2.33;;;;;;;4.01;100.00;102957.75;5132034;28;20044;-59
2023/02/27 08:52:40;;;;;;;4.88;2.33;;;;;;;4.31;100.00;102955.88;5131016;28;20055;-59
2023/02/27 08:55:09;;;;;;;6.57;2.08;;;;;;;4.42;100.00;102958.44;5130248;28;20428;-60
2023/02/27 08:57:37;;;;;;;6.32;2.10;;;;;;;4.10;100.00;102956.84;5132596;27;20131;-60
2023/02/27 09:00:09;;;;;;;8.25;2.42;;;;;;;4.30;100.00;102953.28;5128786;28;20058;-60
2023/02/27 09:02:37;;;;;;;6.95;2.35;;;;;;;4.41;97.49;102948.88;5130139;28;20501;-59
2023/02/27 09:05:06;;;;;;;5.97;2.08;;;;;;;4.50;97.64;102954.03;5128746;28;20043;-59
2023/02/27 09:07:34;;;;;;;7.30;2.35;;;;;;;4.35;97.47;102951.50;5132514;27;20497;-59
2023/02/27 09:10:04;;;;;;;5.32;1.95;;;;;;;4.57;94.45;102957.47;5128636;27;20062;-59
2023/02/27 09:12:35;;;;;;;5.03;1.88;;;;;;;4.59;95.93;102960.06;5130911;27;20123;-59
2023/02/27 09:15:04;;;;;;;8.40;2.97;;;;;;;4.66;95.56;102957.44;5131490;28;20434;-59
2023/02/27 09:17:32;;;;;;;5.80;2.13;;;;;;;4.40;92.32;102970.59;5130377;27;20554;-59
2023/02/27 09:20:00;;;;;;;7.78;1.98;;;;;;;4.50;93.96;102959.25;5132815;27;20134;-60
2023/02/27 09:22:28;;;;;;;8.48;2.17;;;;;;;4.45;94.80;102963.63;5133354;27;20136;-59
2023/02/27 09:24:59;;;;;;;4.45;1.73;;;;;;;4.56;93.17;102969.63;5136870;27;20111;-60
2023/02/27 09:27:29;;;;;;;5.13;2.20;;;;;;;4.51;92.92;102968.81;5135585;27;20095;-60
2023/02/27 09:29:58;;;;;;;7.85;2.20;;;;;;;4.65;94.11;102970.44;5133112;27;20536;-60
2023/02/27 09:32:27;;;;;;;5.95;2.00;;;;;;;4.78;93.67;102966.88;5133428;27;20508;-60
2023/02/27 09:34:55;;;;;;;4.70;1.85;;;;;;;4.75;89.79;102966.91;5132395;27;20074;-60
2023/02/27 09:37:24;;;;;;;4.90;1.70;;;;;;;4.71;90.24;102965.22;5133139;27;20047;-60
2023/02/27 09:39:52;;;;;;;4.05;1.75;;;;;;;4.75;90.31;102964.31;5133624;27;20047;-59
2023/02/27 09:42:23;;;;;;;7.38;2.40;;;;;;;4.91;90.76;102968.53;5133337;27;20047;-60
2023/02/27 09:44:56;;;;;;;5.55;1.50;;;;;;;5.02;90.63;102959.78;5133080;27;20047;-60
2023/02/27 09:47:28;;;;;;;5.00;1.83;;;;;;;5.20;90.93;102969.19;5133234;27;20047;-60
2023/02/27 09:50:03;;;;;;;5.13;1.60;;;;;;;5.27;87.72;102967.38;5136151;27;20079;-59
2023/02/27 09:52:33;;;;;;;4.68;1.50;;;;;;;5.40;87.04;102966.41;5135910;27;20039;-60
2023/02/27 09:55:01;;;;;;;6.32;1.48;;;;;;;5.52;85.44;102970.63;5134530;27;20039;-60
2023/02/27 09:57:42;;;;;;;6.13;1.80;;;;;;;5.57;85.08;102964.47;5132586;27;20043;-60
2023/02/27 10:00:28;;;;;;;11.40;2.35;;;;;;;5.59;83.32;102969.69;5132403;27;20077;-60
2023/02/27 10:03:07;;;;;;;7.40;1.75;;;;;;;5.56;80.87;102967.97;5133183;27;20047;-60
2023/02/27 10:05:41;;;;;;;4.57;1.50;;;;;;;5.55;83.65;102968.84;5134170;27;20526;-60
2023/02/27 10:08:17;;;;;;;5.63;1.88;;;;;;;5.81;83.27;102966.81;5136071;27;20054;-60
2023/02/27 10:10:59;;;;;;;7.03;1.80;;;;;;;5.85;82.61;102974.63;5132584;27;20374;-60
2023/02/27 10:13:42;;;;;;;6.00;1.63;;;;;;;5.86;81.32;102963.31;5132591;27;20073;-60
2023/02/27 10:16:13;;;;;;;;;;;;;;;6.03;81.34;102959.66;5134706;27;20035;-60
2023/02/27 10:18:50;;;;;;;5.40;1.38;;;;;;;6.45;80.67;102967.81;5135783;27;19919;-60
2023/02/27 10:21:24;;;;;;;5.90;1.60;;;;;;;6.43;77.12;102957.41;5135737;27;20067;-60
2023/02/27 10:23:59;;;;;;;2.95;1.20;;;;;;;6.66;76.31;102952.72;5134048;27;20114;-60
2023/02/27 10:26:29;;;;;;;8.23;1.77;;;;;;;6.81;71.91;102951.63;5130710;27;20058;-60
2023/02/27 10:29:02;;;;;;;5.05;1.50;;;;;;;6.99;75.10;102955.69;5132630;27;20549;-60
2023/02/27 10:31:34;;;;;;;10.05;2.08;;;;;;;7.09;75.44;102952.88;5131783;27;20059;-60
2023/02/27 10:34:03;;;;;;;;;;;;;;;7.41;77.18;102958.44;5133500;27;20042;-59
2023/02/27 10:36:33;;;;;;;6.75;1.52;;;;;;;7.74;72.97;102946.47;5130341;27;19954;-59
2023/02/27 10:39:06;;;;;;;7.72;1.58;;;;;;;7.87;70.18;102951.47;5132035;27;20486;-59
2023/02/27 10:41:36;;;;;;;8.40;2.58;;;;;;;7.75;73.09;102947.34;5134662;27;20051;-60
2023/02/27 10:44:04;;;;;;;4.72;1.35;;;;;;;8.32;71.89;102942.66;5131028;27;20100;-60
2023/02/27 10:46:36;;;;;;;9.32;1.45;;;;;;;8.26;68.28;102943.66;5131160;27;20035;-60
2023/02/27 10:49:14;;;;;;;5.13;1.55;;;;;;;8.33;68.42;102940.03;5132461;27;20457;-58
2023/02/27 10:51:46;;;;;;;4.35;1.45;;;;;;;8.45;68.24;102938.88;5130899;27;20490;-59
2023/02/27 10:54:22;;;;;;;3.45;1.52;;;;;;;8.57;67.10;102933.34;5134492;27;20509;-59
2023/02/27 10:56:52;;;;;;;7.18;1.90;;;;;;;8.80;66.31;102927.56;5132465;27;20063;-59
2023/02/27 10:59:23;;;;;;;6.93;1.73;;;;;;;9.11;66.02;102928.56;5131343;27;20051;-59
2023/02/27 11:01:55;;;;;;;6.25;1.80;;;;;;;9.18;64.12;102927.50;5131468;27;20520;-60
2023/02/27 11:04:25;;;;;;;3.63;1.23;;;;;;;9.37;61.92;102922.63;5133999;27;20080;-60
2023/02/27 11:06:54;;;;;;;5.22;1.42;;;;;;;9.25;63.27;102920.34;5134536;27;20042;-60
2023/02/27 11:09:25;;;;;;;4.85;1.35;;;;;;;9.20;60.80;102914.34;5130899;27;20076;-60
2023/02/27 11:11:54;;;;;;;7.47;2.00;;;;;;;9.46;62.53;102913.63;5133191;27;20504;-59
2023/02/27 11:14:28;;;;;;;5.90;1.38;;;;;;;9.47;57.97;102902.22;5134611;27;20031;-60
2023/02/27 11:16:59;;;;;;;5.22;1.60;;;;;;;9.76;58.93;102895.28;5131716;27;20108;-60
2023/02/27 11:19:33;;;;;;;1.95;1.10;;;;;;;9.50;55.93;102902.13;5130005;27;20105;-60
2023/02/27 11:22:07;;;;;;;4.88;1.10;;;;;;;9.78;56.46;102893.47;5130850;27;20043;-60
2023/02/27 11:24:35;;;;;;;2.97;0.70;;;;;;;9.77;55.02;102894.38;5132854;27;20122;-59
2023/02/27 11:27:17;;;;;;;3.97;1.00;;;;;;;9.82;54.45;102909.09;5132355;27;20469;-60
2023/02/27 11:29:56;;;;;;;3.13;1.00;;;;;;;9.25;54.05;102887.06;5129784;27;20050;-60
2023/02/27 11:32:29;;;;;;;4.80;1.30;;;;;;;9.92;55.23;102891.28;5131811;27;20051;-59
2023/02/27 11:34:57;;;;;;;;;;;;;;;10.39;56.25;102884.66;5135041;27;20550;-59
2023/02/27 11:37:30;;;;;;;3.78;1.10;;;;;;;10.46;54.26;102880.94;5134407;27;19919;-59
2023/02/27 11:40:12;;;;;;;3.80;0.90;;;;;;;10.35;52.74;102872.50;5133721;27;20490;-61
2023/02/27 11:42:45;;;;;;;3.77;1.03;;;;;;;10.14;50.65;102874.88;5133266;27;20039;-59